createdAt,value
2019-01-10T00:00:52.867Z,93.90
2019-01-10T00:03:20.555Z,93.70
2019-01-10T00:05:48.163Z,93.60
2019-01-10T00:08:16.086Z,93.60
2019-01-10T00:10:43.797Z,93.50
2019-01-10T00:13:11.558Z,93.60
2019-01-10T00:15:39.002Z,93.50
2019-01-10T00:18:06.627Z,93.80
2019-01-10T00:20:34.161Z,93.90
2019-01-10T00:23:01.961Z,93.80
2019-01-10T00:25:29.448Z,93.70
2019-01-10T00:27:56.899Z,93.70
2019-01-10T00:30:24.431Z,93.60
2019-01-10T00:32:52.197Z,93.50
2019-01-10T00:35:19.788Z,93.50
2019-01-10T00:37:47.628Z,93.70
2019-01-10T00:40:15.531Z,93.60
2019-01-10T00:42:49.251Z,93.80
2019-01-10T00:45:14.571Z,93.50
2019-01-10T00:47:42.446Z,93.50
2019-01-10T00:50:28.088Z,93.50
2019-01-10T00:52:55.719Z,93.60
2019-01-10T00:55:23.362Z,93.40
2019-01-10T00:57:50.867Z,93.30
2019-01-10T01:00:21.568Z,93.30
2019-01-10T01:02:49.381Z,93.30
2019-01-10T01:05:17.196Z,93.20
2019-01-10T01:07:44.783Z,93.10
2019-01-10T01:10:22.429Z,93.20
2019-01-10T01:12:57.983Z,93.30
2019-01-10T01:15:20.015Z,93.20
2019-01-10T01:17:47.623Z,93.20
2019-01-10T01:20:17.753Z,93.00
2019-01-10T01:22:45.735Z,93.20
2019-01-10T01:25:14.209Z,93.20
2019-01-10T01:27:41.961Z,93.20
2019-01-10T01:30:15.961Z,93.10
2019-01-10T01:32:43.534Z,93.10
2019-01-10T01:35:11.477Z,93.20
2019-01-10T01:37:38.942Z,93.20
2019-01-10T01:40:08.178Z,93.70
2019-01-10T01:42:35.654Z,93.60
2019-01-10T01:45:04.148Z,93.50
2019-01-10T01:47:31.651Z,93.40
2019-01-10T01:49:59.590Z,93.30
2019-01-10T01:52:27.237Z,93.20
2019-01-10T01:54:54.727Z,93.10
2019-01-10T01:57:22.190Z,93.10
2019-01-10T01:59:49.561Z,93.00
2019-01-10T02:02:17.370Z,93.00
2019-01-10T02:04:44.717Z,92.90
2019-01-10T02:07:18.424Z,92.90
2019-01-10T02:09:46.111Z,93.00
2019-01-10T02:12:13.671Z,93.10
2019-01-10T02:14:41.233Z,93.30
2019-01-10T02:17:08.792Z,93.40
2019-01-10T02:19:36.261Z,93.20
2019-01-10T02:22:04.048Z,93.10
2019-01-10T02:24:31.547Z,93.00
2019-01-10T02:26:59.168Z,93.00
2019-01-10T02:29:27.062Z,93.20
2019-01-10T02:31:54.661Z,93.40
2019-01-10T02:34:22.155Z,93.20
2019-01-10T02:36:49.627Z,93.00
2019-01-10T02:39:20.179Z,93.20
2019-01-10T02:41:47.637Z,93.20
2019-01-10T02:44:15.284Z,93.50
2019-01-10T02:46:42.862Z,94.00
2019-01-10T02:49:10.540Z,93.60
2019-01-10T02:51:38.149Z,93.60
2019-01-10T02:54:05.609Z,93.50
2019-01-10T02:56:36.344Z,93.40
2019-01-10T02:59:04.266Z,93.30
2019-01-10T03:01:31.826Z,93.30
2019-01-10T03:03:59.326Z,93.30
2019-01-10T03:06:26.951Z,93.20
2019-01-10T03:08:57.432Z,93.20
2019-01-10T03:11:24.782Z,93.20
2019-01-10T03:13:52.262Z,93.20
2019-01-10T03:16:20.749Z,93.20
2019-01-10T03:18:48.283Z,93.10
2019-01-10T03:21:15.775Z,93.20
2019-01-10T03:23:43.153Z,93.20
2019-01-10T03:26:10.770Z,93.10
2019-01-10T03:28:38.435Z,93.10
2019-01-10T03:31:05.941Z,93.20
2019-01-10T03:33:34.476Z,93.20
2019-01-10T03:36:03.124Z,93.10
2019-01-10T03:38:30.892Z,93.20
2019-01-10T03:40:58.225Z,93.20
2019-01-10T03:43:25.787Z,93.10
2019-01-10T03:45:53.589Z,93.10
2019-01-10T03:48:20.964Z,93.20
2019-01-10T03:50:48.350Z,93.10
2019-01-10T03:53:15.741Z,93.10
2019-01-10T03:55:43.338Z,93.10
2019-01-10T03:58:10.969Z,93.10
2019-01-10T04:00:38.337Z,93.10
2019-01-10T04:03:05.778Z,93.10
2019-01-10T04:05:33.236Z,93.20
2019-01-10T04:08:00.757Z,93.20
2019-01-10T04:10:28.114Z,93.20
2019-01-10T04:12:55.558Z,93.20
2019-01-10T04:15:23.314Z,93.20
2019-01-10T04:17:50.795Z,93.20
2019-01-10T04:20:18.515Z,93.30
2019-01-10T04:22:46.103Z,93.30
2019-01-10T04:25:14.320Z,93.30
2019-01-10T04:27:42.005Z,93.30
2019-01-10T04:30:17.082Z,93.40
2019-01-10T04:32:44.581Z,93.40
2019-01-10T04:35:12.263Z,93.30
2019-01-10T04:37:40.760Z,93.40
2019-01-10T04:40:12.101Z,93.40
2019-01-10T04:42:39.520Z,93.40
2019-01-10T04:45:07.450Z,93.40
2019-01-10T04:47:35.163Z,93.40
2019-01-10T04:50:03.629Z,93.40
2019-01-10T04:52:31.137Z,93.40
2019-01-10T04:54:58.584Z,93.40
2019-01-10T04:57:25.970Z,93.40
2019-01-10T04:59:53.693Z,93.40
2019-01-10T05:02:21.269Z,93.40
2019-01-10T05:04:48.950Z,93.40
2019-01-10T05:07:16.304Z,93.50
2019-01-10T05:09:48.124Z,93.50
2019-01-10T05:12:15.732Z,93.60
2019-01-10T05:14:43.162Z,93.50
2019-01-10T05:17:10.843Z,93.60
2019-01-10T05:19:38.346Z,93.60
2019-01-10T05:22:07.088Z,93.50
2019-01-10T05:24:34.619Z,93.50
2019-01-10T05:27:01.999Z,93.50
2019-01-10T05:29:29.627Z,93.60
2019-01-10T05:31:57.158Z,93.60
2019-01-10T05:34:25.847Z,93.60
2019-01-10T05:36:53.379Z,93.70
2019-01-10T05:39:20.867Z,93.70
2019-01-10T05:41:48.310Z,93.70
2019-01-10T05:44:26.430Z,93.80
2019-01-10T05:46:49.008Z,94.00
2019-01-10T05:49:16.745Z,93.80
2019-01-10T05:51:44.190Z,93.80
2019-01-10T05:54:11.674Z,93.90
2019-01-10T05:56:40.296Z,93.80
2019-01-10T05:59:07.883Z,93.80
2019-01-10T06:01:35.235Z,93.80
2019-01-10T06:04:02.918Z,93.70
2019-01-10T06:06:30.238Z,94.10
2019-01-10T06:08:57.672Z,93.90
2019-01-10T06:11:26.524Z,94.00
2019-01-10T06:13:53.883Z,93.90
2019-01-10T06:16:21.309Z,93.80
2019-01-10T06:18:48.767Z,93.80
2019-01-10T06:21:16.316Z,93.70
2019-01-10T06:23:43.809Z,93.70
2019-01-10T06:26:11.358Z,93.70
2019-01-10T06:28:39.152Z,93.80
2019-01-10T06:31:06.979Z,93.80
2019-01-10T06:33:34.573Z,93.80
2019-01-10T06:36:02.193Z,93.50
2019-01-10T06:38:29.615Z,93.50
2019-01-10T06:40:57.113Z,93.40
2019-01-10T06:43:25.469Z,93.40
2019-01-10T06:45:52.924Z,93.40
2019-01-10T06:48:52.252Z,93.30
2019-01-10T06:51:36.255Z,93.50
2019-01-10T06:54:06.219Z,93.30
2019-01-10T06:56:33.831Z,93.10
2019-01-10T06:59:02.961Z,93.10
2019-01-10T07:01:30.481Z,93.20
2019-01-10T07:03:58.115Z,93.20
2019-01-10T07:06:25.611Z,93.10
2019-01-10T07:08:54.283Z,93.00
2019-01-10T07:11:21.726Z,93.10
2019-01-10T07:13:49.074Z,93.00
2019-01-10T07:16:16.562Z,92.90
2019-01-10T07:18:46.505Z,92.70
2019-01-10T07:21:13.984Z,92.40
2019-01-10T07:23:45.896Z,92.40
2019-01-10T07:26:13.588Z,92.40
2019-01-10T07:28:41.275Z,92.40
2019-01-10T07:31:27.147Z,92.50
2019-01-10T07:33:58.838Z,92.40
2019-01-10T07:36:26.454Z,92.20
2019-01-10T07:38:53.828Z,92.50
2019-01-10T07:41:21.242Z,92.50
2019-01-10T07:43:48.798Z,92.00
2019-01-10T07:46:16.569Z,91.90
2019-01-10T07:48:49.059Z,91.90
2019-01-10T07:51:16.626Z,91.70
2019-01-10T07:53:44.200Z,91.70
2019-01-10T07:56:11.608Z,91.60
2019-01-10T07:58:42.026Z,91.60
2019-01-10T08:01:09.341Z,91.60
2019-01-10T08:03:36.894Z,91.10
2019-01-10T08:06:04.752Z,91.10
2019-01-10T08:08:32.376Z,91.30
2019-01-10T08:11:01.576Z,91.30
2019-01-10T08:13:29.148Z,91.50
2019-01-10T08:15:56.571Z,91.40
2019-01-10T08:18:24.974Z,91.40
2019-01-10T08:20:52.666Z,91.10
2019-01-10T08:23:20.131Z,91.10
2019-01-10T08:25:47.579Z,90.90
2019-01-10T08:28:16.509Z,90.90
2019-01-10T08:30:43.996Z,91.10
2019-01-10T08:33:11.762Z,90.60
2019-01-10T08:35:39.679Z,90.50
2019-01-10T08:38:07.168Z,90.30
2019-01-10T08:40:34.671Z,90.20
2019-01-10T08:43:02.432Z,90.10
2019-01-10T08:45:30.536Z,90.20
2019-01-10T08:47:58.438Z,90.00
2019-01-10T08:50:26.365Z,89.90
2019-01-10T08:52:54.251Z,89.70
2019-01-10T08:55:22.019Z,89.80
2019-01-10T08:57:49.673Z,89.10
2019-01-10T09:00:19.875Z,88.50
2019-01-10T09:02:47.499Z,88.30
2019-01-10T09:05:15.063Z,88.30
2019-01-10T09:07:42.861Z,87.70
2019-01-10T09:10:33.950Z,87.20
2019-01-10T09:13:01.903Z,86.80
2019-01-10T09:15:34.753Z,86.70
2019-01-10T09:17:58.813Z,85.80
2019-01-10T09:20:26.438Z,86.30
2019-01-10T09:22:53.936Z,86.40
2019-01-10T09:25:21.464Z,86.50
2019-01-10T09:27:49.832Z,85.80
2019-01-10T09:30:19.619Z,85.90
2019-01-10T09:32:47.170Z,84.90
2019-01-10T09:35:14.706Z,85.30
2019-01-10T09:37:42.629Z,85.70
2019-01-10T09:40:13.356Z,85.40
2019-01-10T09:42:41.055Z,85.10
2019-01-10T09:45:11.396Z,85.40
2019-01-10T09:47:39.006Z,85.20
2019-01-10T09:50:11.688Z,84.30
2019-01-10T09:52:39.425Z,84.10
2019-01-10T09:55:07.098Z,84.60
2019-01-10T09:57:34.565Z,85.00
2019-01-10T10:00:02.399Z,84.80
2019-01-10T10:02:29.956Z,84.50
2019-01-10T10:04:57.400Z,84.40
2019-01-10T10:07:24.879Z,84.60
2019-01-10T10:09:52.414Z,84.60
2019-01-10T10:12:19.883Z,84.70
2019-01-10T10:14:47.342Z,84.30
2019-01-10T10:17:14.900Z,84.50
2019-01-10T10:19:42.886Z,83.70
2019-01-10T10:22:10.297Z,82.50
2019-01-10T10:24:37.942Z,82.00
2019-01-10T10:27:05.460Z,82.00
2019-01-10T10:29:33.003Z,81.30
2019-01-10T10:32:00.507Z,81.30
2019-01-10T10:34:27.996Z,80.90
2019-01-10T10:36:55.727Z,81.00
2019-01-10T10:39:23.071Z,80.70
2019-01-10T10:41:50.820Z,81.00
2019-01-10T10:44:18.424Z,81.20
2019-01-10T10:46:45.820Z,80.90
2019-01-10T10:49:13.275Z,81.30
2019-01-10T10:51:40.920Z,81.20
2019-01-10T10:54:08.495Z,81.60
2019-01-10T10:56:37.045Z,81.90
2019-01-10T10:59:04.701Z,81.80
2019-01-10T11:01:32.277Z,82.10
2019-01-10T11:03:59.707Z,82.40
2019-01-10T11:06:27.287Z,82.20
2019-01-10T11:08:54.623Z,82.00
2019-01-10T11:11:22.137Z,81.60
2019-01-10T11:13:49.524Z,81.70
2019-01-10T11:16:16.987Z,81.20
2019-01-10T11:18:44.684Z,80.70
2019-01-10T11:21:12.227Z,80.50
2019-01-10T11:23:39.695Z,80.80
2019-01-10T11:26:08.401Z,81.00
2019-01-10T11:28:35.880Z,81.10
2019-01-10T11:31:03.478Z,81.30
2019-01-10T11:33:31.113Z,80.60
2019-01-10T11:35:58.414Z,79.90
2019-01-10T11:38:25.959Z,80.60
2019-01-10T11:40:53.333Z,79.90
2019-01-10T11:43:20.731Z,79.50
2019-01-10T11:45:48.230Z,79.70
2019-01-10T11:48:15.680Z,79.50
2019-01-10T11:50:43.118Z,79.70
2019-01-10T11:53:10.598Z,79.60
2019-01-10T11:55:38.014Z,79.80
2019-01-10T11:58:05.905Z,80.20
2019-01-10T12:00:33.712Z,80.70
2019-01-10T12:03:04.063Z,80.70
2019-01-10T12:05:31.682Z,81.40
2019-01-10T12:07:59.217Z,81.50
2019-01-10T12:10:26.772Z,82.00
2019-01-10T12:12:54.234Z,82.10
2019-01-10T12:15:22.289Z,82.00
2019-01-10T12:17:49.727Z,82.20
2019-01-10T12:20:17.402Z,82.40
2019-01-10T12:22:45.411Z,82.40
2019-01-10T12:25:14.122Z,82.50
2019-01-10T12:27:43.065Z,82.40
2019-01-10T12:30:15.597Z,81.90
2019-01-10T12:32:43.228Z,81.90
2019-01-10T12:35:10.680Z,81.60
2019-01-10T12:37:38.174Z,81.20
2019-01-10T12:40:08.628Z,81.50
2019-01-10T12:42:36.283Z,81.40
2019-01-10T12:45:05.785Z,81.70
2019-01-10T12:47:34.235Z,81.50
2019-01-10T12:50:01.891Z,81.70
2019-01-10T12:52:35.065Z,82.00
2019-01-10T12:54:58.702Z,82.30
2019-01-10T12:57:26.107Z,82.40
2019-01-10T12:59:53.746Z,82.50
2019-01-10T13:02:21.208Z,82.80
2019-01-10T13:04:48.668Z,82.80
2019-01-10T13:07:16.039Z,82.70
2019-01-10T13:09:43.526Z,82.90
2019-01-10T13:12:11.125Z,82.90
2019-01-10T13:14:38.626Z,82.40
2019-01-10T13:17:06.105Z,82.70
2019-01-10T13:19:33.497Z,82.80
2019-01-10T13:22:00.962Z,83.00
2019-01-10T13:24:28.435Z,83.20
2019-01-10T13:26:56.008Z,83.60
2019-01-10T13:29:23.633Z,83.60
2019-01-10T13:31:50.989Z,83.60
2019-01-10T13:34:18.336Z,83.60
2019-01-10T13:36:46.744Z,83.60
2019-01-10T13:39:14.068Z,83.60
2019-01-10T13:41:41.767Z,83.80
2019-01-10T13:44:09.222Z,84.10
2019-01-10T13:46:36.654Z,84.00
2019-01-10T13:49:04.414Z,84.00
2019-01-10T13:51:32.147Z,83.40
2019-01-10T13:53:59.561Z,84.10
2019-01-10T13:56:27.069Z,84.30
2019-01-10T13:58:54.736Z,84.10
2019-01-10T14:01:22.311Z,84.00
2019-01-10T14:03:49.800Z,84.30
2019-01-10T14:06:17.247Z,84.30
2019-01-10T14:08:44.787Z,83.90
2019-01-10T14:11:12.338Z,84.20
2019-01-10T14:13:40.035Z,84.20
2019-01-10T14:16:07.586Z,84.00
2019-01-10T14:18:35.043Z,84.20
2019-01-10T14:21:02.541Z,84.40
2019-01-10T14:23:31.162Z,84.50
2019-01-10T14:25:58.603Z,84.70
2019-01-10T14:28:25.950Z,84.70
2019-01-10T14:30:53.723Z,84.90
2019-01-10T14:33:21.084Z,85.00
2019-01-10T14:35:49.860Z,85.00
2019-01-10T14:38:17.624Z,85.10
2019-01-10T14:40:45.117Z,85.40
2019-01-10T14:43:13.017Z,85.80
2019-01-10T14:45:42.850Z,85.90
2019-01-10T14:48:10.513Z,86.10
2019-01-10T14:50:38.093Z,86.20
2019-01-10T14:53:05.938Z,86.30
2019-01-10T14:55:33.653Z,86.40
2019-01-10T14:58:01.252Z,86.80
2019-01-10T15:00:28.827Z,87.00
2019-01-10T15:02:56.319Z,87.20
2019-01-10T15:05:24.138Z,87.40
2019-01-10T15:07:51.604Z,87.50
2019-01-10T15:10:19.257Z,87.70
2019-01-10T15:12:47.381Z,87.90
2019-01-10T15:15:20.928Z,88.00
2019-01-10T15:17:48.530Z,88.40
2019-01-10T15:20:24.455Z,88.60
2019-01-10T15:22:52.689Z,88.50
2019-01-10T15:25:20.245Z,88.40
2019-01-10T15:28:06.645Z,88.30
2019-01-10T15:30:41.305Z,88.40
2019-01-10T15:33:08.859Z,88.60
2019-01-10T15:35:36.409Z,88.50
2019-01-10T15:38:04.094Z,88.70
2019-01-10T15:40:33.419Z,88.90
2019-01-10T15:43:02.379Z,88.70
2019-01-10T15:45:29.932Z,88.50
2019-01-10T15:47:58.788Z,88.60
2019-01-10T15:50:26.147Z,88.80
2019-01-10T15:52:53.845Z,88.90
2019-01-10T15:55:21.912Z,88.80
2019-01-10T15:57:49.624Z,88.70
2019-01-10T16:00:22.227Z,88.70
2019-01-10T16:02:50.054Z,88.70
2019-01-10T16:05:17.726Z,89.40
2019-01-10T16:07:45.549Z,89.10
2019-01-10T16:10:15.017Z,89.10
2019-01-10T16:12:43.389Z,89.20
2019-01-10T16:15:14.703Z,89.20
2019-01-10T16:17:43.730Z,89.30
2019-01-10T16:20:11.558Z,89.40
2019-01-10T16:22:39.198Z,89.40
2019-01-10T16:25:07.398Z,89.30
2019-01-10T16:27:35.176Z,89.50
2019-01-10T16:30:05.426Z,89.60
2019-01-10T16:32:33.373Z,89.60
2019-01-10T16:35:00.762Z,89.50
2019-01-10T16:37:28.690Z,89.70
2019-01-10T16:39:56.439Z,89.80
2019-01-10T16:42:24.891Z,90.00
2019-01-10T16:44:52.354Z,90.00
2019-01-10T16:47:19.983Z,90.00
2019-01-10T16:49:47.656Z,90.00
2019-01-10T16:52:15.139Z,90.00
2019-01-10T16:54:43.864Z,90.00
2019-01-10T16:57:11.822Z,90.00
2019-01-10T16:59:39.426Z,90.00
2019-01-10T17:02:07.446Z,90.10
2019-01-10T17:04:36.999Z,90.30
2019-01-10T17:07:05.194Z,90.30
2019-01-10T17:09:33.700Z,90.20
2019-01-10T17:12:03.113Z,90.40
2019-01-10T17:14:30.942Z,90.20
2019-01-10T17:16:58.573Z,90.30
2019-01-10T17:19:26.031Z,90.20
2019-01-10T17:21:53.626Z,90.10
2019-01-10T17:24:20.997Z,90.10
2019-01-10T17:26:48.387Z,89.10
2019-01-10T17:29:16.737Z,89.50
2019-01-10T17:31:44.207Z,87.50
2019-01-10T17:34:11.743Z,87.60
2019-01-10T17:36:42.670Z,87.50
2019-01-10T17:39:11.780Z,87.60
2019-01-10T17:41:39.612Z,86.60
2019-01-10T17:44:08.600Z,87.00
2019-01-10T17:46:36.157Z,87.60
2019-01-10T17:49:04.097Z,87.50
2019-01-10T17:51:34.265Z,87.70
2019-01-10T17:54:02.003Z,88.10
2019-01-10T17:56:29.877Z,88.10
2019-01-10T17:58:57.811Z,88.20
2019-01-10T18:01:26.431Z,88.40
2019-01-10T18:03:55.621Z,89.00
2019-01-10T18:06:24.708Z,88.60
2019-01-10T18:08:52.645Z,88.40
2019-01-10T18:11:22.041Z,88.00
2019-01-10T18:13:49.612Z,88.60
2019-01-10T18:16:18.778Z,88.00
2019-01-10T18:19:00.990Z,87.30
2019-01-10T18:21:29.518Z,87.10
2019-01-10T18:23:58.385Z,86.90
2019-01-10T18:26:26.760Z,87.00
2019-01-10T18:28:54.575Z,87.00
2019-01-10T18:31:22.244Z,87.20
2019-01-10T18:33:51.259Z,87.40
2019-01-10T18:36:19.038Z,88.40
2019-01-10T18:38:48.041Z,88.50
2019-01-10T18:41:18.926Z,88.60
2019-01-10T18:43:47.088Z,89.00
2019-01-10T18:46:16.109Z,89.40
2019-01-10T18:48:43.709Z,90.00
2019-01-10T18:51:11.295Z,90.00
2019-01-10T18:53:39.205Z,89.70
2019-01-10T18:56:06.821Z,89.40
2019-01-10T18:58:34.909Z,88.90
2019-01-10T19:01:04.242Z,88.90
2019-01-10T19:03:32.058Z,89.50
2019-01-10T19:06:00.278Z,89.60
2019-01-10T19:08:27.779Z,89.60
2019-01-10T19:10:56.008Z,89.50
2019-01-10T19:13:24.363Z,89.80
2019-01-10T19:15:54.129Z,89.90
2019-01-10T19:18:32.182Z,89.60
2019-01-10T19:21:00.079Z,89.80
2019-01-10T19:23:28.231Z,89.70
2019-01-10T19:25:55.871Z,90.10
2019-01-10T19:28:24.135Z,90.00
2019-01-10T19:30:52.583Z,90.10
2019-01-10T19:33:20.179Z,90.00
2019-01-10T19:35:53.125Z,89.90
2019-01-10T19:38:26.843Z,89.80
2019-01-10T19:40:56.818Z,89.70
2019-01-10T19:43:24.955Z,89.90
2019-01-10T19:45:52.891Z,90.20
2019-01-10T19:48:32.536Z,89.60
2019-01-10T19:51:02.822Z,89.20
2019-01-10T19:53:31.540Z,89.30
2019-01-10T19:56:13.540Z,89.10
2019-01-10T19:58:43.786Z,89.40
2019-01-10T20:01:17.706Z,89.10
2019-01-10T20:03:48.631Z,89.30
2019-01-10T20:06:16.432Z,89.10
2019-01-10T20:08:45.993Z,89.30
2019-01-10T20:11:14.391Z,89.30
2019-01-10T20:13:44.493Z,89.40
2019-01-10T20:16:12.089Z,89.50
2019-01-10T20:18:39.524Z,89.30
2019-01-10T20:21:07.420Z,89.30
2019-01-10T20:23:35.850Z,89.20
2019-01-10T20:26:04.020Z,89.00
2019-01-10T20:28:33.544Z,89.00
2019-01-10T20:31:01.540Z,88.90
2019-01-10T20:33:29.152Z,89.20
2019-01-10T20:35:57.934Z,88.70
2019-01-10T20:38:25.907Z,88.80
2019-01-10T20:40:53.359Z,88.80
2019-01-10T20:43:21.629Z,88.90
2019-01-10T20:45:49.259Z,88.80
2019-01-10T20:48:22.385Z,88.60
2019-01-10T20:50:50.169Z,88.70
2019-01-10T20:53:18.997Z,88.70
2019-01-10T20:55:47.585Z,88.60
2019-01-10T20:58:16.724Z,88.50
2019-01-10T21:00:44.712Z,88.80
2019-01-10T21:03:13.297Z,88.80
2019-01-10T21:05:40.883Z,88.90
2019-01-10T21:08:08.486Z,89.00
2019-01-10T21:10:37.093Z,89.30
2019-01-10T21:13:05.626Z,89.20
2019-01-10T21:15:35.493Z,88.90
2019-01-10T21:18:03.618Z,88.80
2019-01-10T21:20:31.560Z,88.70
2019-01-10T21:22:59.164Z,88.80
2019-01-10T21:25:26.891Z,89.00
2019-01-10T21:27:54.528Z,89.00
2019-01-10T21:30:23.006Z,90.00
2019-01-10T21:32:50.758Z,88.90
2019-01-10T21:35:18.965Z,89.10
2019-01-10T21:37:46.756Z,88.80
2019-01-10T21:40:17.093Z,88.40
2019-01-10T21:42:44.990Z,88.40
2019-01-10T21:45:15.604Z,88.40
2019-01-10T21:47:43.131Z,88.30
2019-01-10T21:50:13.743Z,88.50
2019-01-10T21:52:41.488Z,89.00
2019-01-10T21:55:09.592Z,88.40
2019-01-10T21:57:37.205Z,88.40
2019-01-10T22:00:09.677Z,88.40
2019-01-10T22:02:37.519Z,88.40
2019-01-10T22:05:05.592Z,88.60
2019-01-10T22:07:33.957Z,88.50
2019-01-10T22:10:01.462Z,88.60
2019-01-10T22:12:28.904Z,88.50
2019-01-10T22:14:56.331Z,88.60
2019-01-10T22:17:23.753Z,88.60
2019-01-10T22:19:51.351Z,88.60
2019-01-10T22:22:18.982Z,88.80
2019-01-10T22:24:46.325Z,88.70
2019-01-10T22:27:13.982Z,88.80
2019-01-10T22:29:45.072Z,88.60
2019-01-10T22:32:12.568Z,88.40
2019-01-10T22:34:40.225Z,88.50
2019-01-10T22:37:07.771Z,88.50
2019-01-10T22:39:35.164Z,89.20
2019-01-10T22:42:02.717Z,89.00
2019-01-10T22:44:30.118Z,89.00
2019-01-10T22:46:57.702Z,88.60
2019-01-10T22:49:25.293Z,88.80
2019-01-10T22:51:52.799Z,88.60
2019-01-10T22:54:20.342Z,88.80
2019-01-10T22:56:50.774Z,88.70
2019-01-10T22:59:18.647Z,88.70
2019-01-10T23:01:55.586Z,89.10
2019-01-10T23:04:36.791Z,89.00
2019-01-10T23:07:36.400Z,88.80
2019-01-10T23:10:08.548Z,88.70
2019-01-10T23:12:36.066Z,88.80
2019-01-10T23:15:29.523Z,88.70
2019-01-10T23:17:57.128Z,88.80
2019-01-10T23:20:24.692Z,88.80
2019-01-10T23:22:59.883Z,88.90
2019-01-10T23:25:27.840Z,89.00
2019-01-10T23:27:55.421Z,88.80
2019-01-10T23:30:45.057Z,88.90
2019-01-10T23:33:12.717Z,88.80
2019-01-10T23:35:40.198Z,89.20
2019-01-10T23:38:08.453Z,89.30
2019-01-10T23:40:36.160Z,89.20
2019-01-10T23:43:03.882Z,89.10
2019-01-10T23:45:31.499Z,89.20
2019-01-10T23:47:58.908Z,89.30
2019-01-10T23:50:29.279Z,89.20
2019-01-10T23:52:57.073Z,89.10
2019-01-10T23:55:24.552Z,90.20
2019-01-10T23:57:52.030Z,89.60
